sensor_id;sensor_type;location;lat;lon;timestamp;pressure;altitude;pressure_sealevel;temperature
69857;BMP280;57147;53.582;10.112;2022-09-09T00:05:14;100605.16;;;13.68
69857;BMP280;57147;53.582;10.112;2022-09-09T00:10:24;100604.56;;;13.71
69857;BMP280;57147;53.582;10.112;2022-09-09T00:15:33;100609.25;;;13.74
69857;BMP280;57147;53.582;10.112;2022-09-09T00:20:39;100616.16;;;13.75
69857;BMP280;57147;53.582;10.112;2022-09-09T00:25:46;100617.41;;;13.78
69857;BMP280;57147;53.582;10.112;2022-09-09T00:30:51;100611.13;;;13.82
69857;BMP280;57147;53.582;10.112;2022-09-09T00:35:54;100617.41;;;13.86
69857;BMP280;57147;53.582;10.112;2022-09-09T00:41:01;100620.25;;;13.64
69857;BMP280;57147;53.582;10.112;2022-09-09T00:46:21;100616.78;;;13.72
69857;BMP280;57147;53.582;10.112;2022-09-09T00:51:29;100614.75;;;13.69
69857;BMP280;57147;53.582;10.112;2022-09-09T00:56:35;100612.69;;;13.66
69857;BMP280;57147;53.582;10.112;2022-09-09T01:01:39;100587.97;;;13.48
69857;BMP280;57147;53.582;10.112;2022-09-09T01:06:40;100610.81;;;13.58
69857;BMP280;57147;53.582;10.112;2022-09-09T01:11:51;100612.69;;;13.66
69857;BMP280;57147;53.582;10.112;2022-09-09T01:16:58;100614.91;;;13.64
69857;BMP280;57147;53.582;10.112;2022-09-09T01:22:04;100615.22;;;13.54
69857;BMP280;57147;53.582;10.112;2022-09-09T01:27:09;100613.94;;;13.60
69857;BMP280;57147;53.582;10.112;2022-09-09T01:32:39;100616.16;;;13.58
69857;BMP280;57147;53.582;10.112;2022-09-09T01:37:40;100619.13;;;13.56
69857;BMP280;57147;53.582;10.112;2022-09-09T01:42:43;100616.78;;;13.38
69857;BMP280;57147;53.582;10.112;2022-09-09T01:47:45;100610.66;;;13.20
69857;BMP280;57147;53.582;10.112;2022-09-09T01:52:48;100539.28;;;12.91
69857;BMP280;57147;53.582;10.112;2022-09-09T01:58:04;100603.94;;;13.40
69857;BMP280;57147;53.582;10.112;2022-09-09T02:03:16;100597.34;;;13.37
69857;BMP280;57147;53.582;10.112;2022-09-09T02:08:24;100606.75;;;13.26
69857;BMP280;57147;53.582;10.112;2022-09-09T02:13:29;100608.34;;;13.36
69857;BMP280;57147;53.582;10.112;2022-09-09T02:18:35;100605.81;;;13.31
69857;BMP280;57147;53.582;10.112;2022-09-09T02:23:38;100594.69;;;13.29
69857;BMP280;57147;53.582;10.112;2022-09-09T02:28:42;100603.47;;;13.38
69857;BMP280;57147;53.582;10.112;2022-09-09T02:33:45;100584.00;;;13.11
69857;BMP280;57147;53.582;10.112;2022-09-09T02:38:48;100604.72;;;13.32
69857;BMP280;57147;53.582;10.112;2022-09-09T02:43:51;100600.34;;;13.36
69857;BMP280;57147;53.582;10.112;2022-09-09T02:48:58;100596.38;;;13.25
69857;BMP280;57147;53.582;10.112;2022-09-09T02:54:04;100602.69;;;13.37
69857;BMP280;57147;53.582;10.112;2022-09-09T02:59:11;100600.16;;;13.24
69857;BMP280;57147;53.582;10.112;2022-09-09T03:04:12;100611.09;;;13.13
69857;BMP280;57147;53.582;10.112;2022-09-09T03:09:12;100608.00;;;13.11
69857;BMP280;57147;53.582;10.112;2022-09-09T03:14:15;100610.81;;;13.06
69857;BMP280;57147;53.582;10.112;2022-09-09T03:19:16;100611.63;;;13.24
69857;BMP280;57147;53.582;10.112;2022-09-09T03:24:17;100612.81;;;13.01
69857;BMP280;57147;53.582;10.112;2022-09-09T03:29:20;100617.06;;;13.10
69857;BMP280;57147;53.582;10.112;2022-09-09T03:34:20;100606.22;;;12.98
69857;BMP280;57147;53.582;10.112;2022-09-09T03:39:21;100612.50;;;13.02
69857;BMP280;57147;53.582;10.112;2022-09-09T03:44:24;100607.31;;;12.97
69857;BMP280;57147;53.582;10.112;2022-09-09T03:49:25;100620.97;;;13.04
69857;BMP280;57147;53.582;10.112;2022-09-09T03:54:25;100625.22;;;13.05
69857;BMP280;57147;53.582;10.112;2022-09-09T03:59:28;100624.13;;;13.06
69857;BMP280;57147;53.582;10.112;2022-09-09T04:04:29;100636.88;;;12.78
69857;BMP280;57147;53.582;10.112;2022-09-09T04:09:30;100630.50;;;12.88
69857;BMP280;57147;53.582;10.112;2022-09-09T04:14:33;100589.34;;;12.55
69857;BMP280;57147;53.582;10.112;2022-09-09T04:19:34;100630.50;;;12.88
69857;BMP280;57147;53.582;10.112;2022-09-09T04:24:34;100637.66;;;12.79
69857;BMP280;57147;53.582;10.112;2022-09-09T04:29:37;100648.41;;;12.65
69857;BMP280;57147;53.582;10.112;2022-09-09T04:34:38;100649.72;;;12.76
69857;BMP280;57147;53.582;10.112;2022-09-09T04:39:38;100652.06;;;12.78
69857;BMP280;57147;53.582;10.112;2022-09-09T04:44:42;100654.59;;;12.83
69857;BMP280;57147;53.582;10.112;2022-09-09T04:49:42;100655.56;;;12.87
69857;BMP280;57147;53.582;10.112;2022-09-09T04:54:43;100673.19;;;13.05
69857;BMP280;57147;53.582;10.112;2022-09-09T04:59:49;100664.13;;;13.06
69857;BMP280;57147;53.582;10.112;2022-09-09T05:04:49;100676.16;;;13.04
69857;BMP280;57147;53.582;10.112;2022-09-09T05:09:50;100672.56;;;13.08
69857;BMP280;57147;53.582;10.112;2022-09-09T05:14:53;100679.31;;;13.06
69857;BMP280;57147;53.582;10.112;2022-09-09T05:19:54;100668.75;;;12.92
69857;BMP280;57147;53.582;10.112;2022-09-09T05:24:54;100684.09;;;12.95
69857;BMP280;57147;53.582;10.112;2022-09-09T05:29:57;100675.81;;;12.97
69857;BMP280;57147;53.582;10.112;2022-09-09T05:34:58;100678.34;;;13.02
69857;BMP280;57147;53.582;10.112;2022-09-09T05:39:58;100679.63;;;13.13
69857;BMP280;57147;53.582;10.112;2022-09-09T05:45:01;100680.75;;;13.21
69857;BMP280;57147;53.582;10.112;2022-09-09T05:50:03;100699.00;;;13.36
69857;BMP280;57147;53.582;10.112;2022-09-09T05:55:05;100697.44;;;13.43
69857;BMP280;57147;53.582;10.112;2022-09-09T06:00:10;100712.59;;;13.26
69857;BMP280;57147;53.582;10.112;2022-09-09T06:05:11;100718.75;;;13.35
69857;BMP280;57147;53.582;10.112;2022-09-09T06:10:12;100714.03;;;13.32
69857;BMP280;57147;53.582;10.112;2022-09-09T06:15:15;100726.00;;;13.60
69857;BMP280;57147;53.582;10.112;2022-09-09T06:20:16;100734.97;;;13.73
69857;BMP280;57147;53.582;10.112;2022-09-09T06:25:16;100742.19;;;13.72
69857;BMP280;57147;53.582;10.112;2022-09-09T06:30:20;100750.84;;;13.86
69857;BMP280;57147;53.582;10.112;2022-09-09T06:35:20;100745.19;;;13.79
69857;BMP280;57147;53.582;10.112;2022-09-09T06:40:21;100744.22;;;13.58
69857;BMP280;57147;53.582;10.112;2022-09-09T06:45:24;100740.16;;;13.69
69857;BMP280;57147;53.582;10.112;2022-09-09T06:50:24;100729.00;;;13.76
69857;BMP280;57147;53.582;10.112;2022-09-09T06:55:25;100725.28;;;13.94
69857;BMP280;57147;53.582;10.112;2022-09-09T07:00:28;100742.69;;;13.91
69857;BMP280;57147;53.582;10.112;2022-09-09T07:05:29;100740.50;;;13.93
69857;BMP280;57147;53.582;10.112;2022-09-09T07:10:29;100736.56;;;14.08
69857;BMP280;57147;53.582;10.112;2022-09-09T07:15:32;100748.03;;;13.91
69857;BMP280;57147;53.582;10.112;2022-09-09T07:20:33;100754.44;;;13.90
69857;BMP280;57147;53.582;10.112;2022-09-09T07:25:34;100751.63;;;13.95
69857;BMP280;57147;53.582;10.112;2022-09-09T07:30:37;100756.19;;;14.21
69857;BMP280;57147;53.582;10.112;2022-09-09T07:35:38;100756.81;;;14.35
69857;BMP280;57147;53.582;10.112;2022-09-09T07:40:38;100756.34;;;14.33
69857;BMP280;57147;53.582;10.112;2022-09-09T07:45:41;100762.56;;;14.54
69857;BMP280;57147;53.582;10.112;2022-09-09T07:50:42;100777.63;;;14.67
69857;BMP280;57147;53.582;10.112;2022-09-09T07:55:43;100780.59;;;14.74
69857;BMP280;57147;53.582;10.112;2022-09-09T08:00:46;100783.13;;;15.17
69857;BMP280;57147;53.582;10.112;2022-09-09T08:05:46;100791.06;;;15.26
69857;BMP280;57147;53.582;10.112;2022-09-09T08:10:48;100794.47;;;15.44
69857;BMP280;57147;53.582;10.112;2022-09-09T08:15:51;100801.69;;;15.43
69857;BMP280;57147;53.582;10.112;2022-09-09T08:20:52;100807.59;;;15.57
69857;BMP280;57147;53.582;10.112;2022-09-09T08:25:52;100821.47;;;15.59
69857;BMP280;57147;53.582;10.112;2022-09-09T08:30:55;100809.22;;;15.50
69857;BMP280;57147;53.582;10.112;2022-09-09T08:35:56;100825.88;;;15.55
69857;BMP280;57147;53.582;10.112;2022-09-09T08:41:03;100817.38;;;15.83
69857;BMP280;57147;53.582;10.112;2022-09-09T08:46:11;100828.06;;;15.83
69857;BMP280;57147;53.582;10.112;2022-09-09T08:51:13;100821.59;;;15.63
69857;BMP280;57147;53.582;10.112;2022-09-09T08:56:16;100827.88;;;15.88
69857;BMP280;57147;53.582;10.112;2022-09-09T09:01:39;100823.72;;;15.99
69857;BMP280;57147;53.582;10.112;2022-09-09T09:06:50;100831.66;;;16.28
69857;BMP280;57147;53.582;10.112;2022-09-09T09:11:57;100832.81;;;16.39
69857;BMP280;57147;53.582;10.112;2022-09-09T09:17:02;100836.28;;;16.73
69857;BMP280;57147;53.582;10.112;2022-09-09T09:22:06;100840.19;;;16.99
69857;BMP280;57147;53.582;10.112;2022-09-09T09:27:13;100846.16;;;17.17
69857;BMP280;57147;53.582;10.112;2022-09-09T09:32:18;100844.81;;;17.23
69857;BMP280;57147;53.582;10.112;2022-09-09T09:37:23;100849.28;;;17.55
69857;BMP280;57147;53.582;10.112;2022-09-09T09:42:26;100850.50;;;17.98
69857;BMP280;57147;53.582;10.112;2022-09-09T09:47:29;100860.75;;;18.20
69857;BMP280;57147;53.582;10.112;2022-09-09T09:52:31;100859.16;;;18.19
69857;BMP280;57147;53.582;10.112;2022-09-09T09:57:32;100863.19;;;18.84
69857;BMP280;57147;53.582;10.112;2022-09-09T10:02:41;100875.59;;;18.89
69857;BMP280;57147;53.582;10.112;2022-09-09T10:07:42;100867.97;;;18.91
69857;BMP280;57147;53.582;10.112;2022-09-09T10:12:53;100882.63;;;18.93
69857;BMP280;57147;53.582;10.112;2022-09-09T10:18:07;100872.28;;;18.80
69857;BMP280;57147;53.582;10.112;2022-09-09T10:23:19;100876.00;;;18.75
69857;BMP280;57147;53.582;10.112;2022-09-09T10:28:33;100870.22;;;18.89
69857;BMP280;57147;53.582;10.112;2022-09-09T10:33:49;100858.94;;;18.99
69857;BMP280;57147;53.582;10.112;2022-09-09T10:38:53;100867.31;;;19.45
69857;BMP280;57147;53.582;10.112;2022-09-09T10:49:38;100866.00;;;19.38
69857;BMP280;57147;53.582;10.112;2022-09-09T10:54:51;100868.03;;;19.61
69857;BMP280;57147;53.582;10.112;2022-09-09T10:59:58;100868.69;;;19.54
69857;BMP280;57147;53.582;10.112;2022-09-09T11:05:06;100821.53;;;19.45
69857;BMP280;57147;53.582;10.112;2022-09-09T11:10:17;100859.03;;;19.72
69857;BMP280;57147;53.582;10.112;2022-09-09T11:15:25;100854.69;;;19.49
69857;BMP280;57147;53.582;10.112;2022-09-09T11:20:31;100851.81;;;20.15
69857;BMP280;57147;53.582;10.112;2022-09-09T11:25:34;100857.09;;;20.76
69857;BMP280;57147;53.582;10.112;2022-09-09T11:30:37;100862.66;;;21.09
69857;BMP280;57147;53.582;10.112;2022-09-09T11:35:58;100836.94;;;21.19
69857;BMP280;57147;53.582;10.112;2022-09-09T11:41:05;100873.34;;;21.02
69857;BMP280;57147;53.582;10.112;2022-09-09T11:46:08;100879.78;;;21.20
69857;BMP280;57147;53.582;10.112;2022-09-09T11:51:13;100872.91;;;21.26
69857;BMP280;57147;53.582;10.112;2022-09-09T11:56:24;100877.63;;;21.07
69857;BMP280;57147;53.582;10.112;2022-09-09T12:01:36;100860.88;;;21.20
69857;BMP280;57147;53.582;10.112;2022-09-09T12:06:45;100870.59;;;21.55
69857;BMP280;57147;53.582;10.112;2022-09-09T12:11:46;100873.41;;;22.35
69857;BMP280;57147;53.582;10.112;2022-09-09T12:16:47;100846.63;;;22.23
69857;BMP280;57147;53.582;10.112;2022-09-09T12:21:57;100878.09;;;22.02
69857;BMP280;57147;53.582;10.112;2022-09-09T12:27:04;100860.47;;;21.78
69857;BMP280;57147;53.582;10.112;2022-09-09T12:32:10;100870.91;;;21.50
69857;BMP280;57147;53.582;10.112;2022-09-09T12:37:15;100877.81;;;21.17
69857;BMP280;57147;53.582;10.112;2022-09-09T12:42:18;100877.13;;;21.54
69857;BMP280;57147;53.582;10.112;2022-09-09T12:47:20;100865.81;;;21.74
69857;BMP280;57147;53.582;10.112;2022-09-09T12:52:27;100861.53;;;21.70
69857;BMP280;57147;53.582;10.112;2022-09-09T12:57:33;100855.66;;;21.34
69857;BMP280;57147;53.582;10.112;2022-09-09T13:02:35;100856.81;;;21.07
69857;BMP280;57147;53.582;10.112;2022-09-09T13:07:38;100861.31;;;20.51
69857;BMP280;57147;53.582;10.112;2022-09-09T13:12:42;100872.94;;;19.94
69857;BMP280;57147;53.582;10.112;2022-09-09T13:17:49;100868.34;;;19.40
69857;BMP280;57147;53.582;10.112;2022-09-09T13:22:54;100807.06;;;18.83
69857;BMP280;57147;53.582;10.112;2022-09-09T13:27:58;100861.78;;;19.06
69857;BMP280;57147;53.582;10.112;2022-09-09T13:32:59;100869.69;;;18.83
69857;BMP280;57147;53.582;10.112;2022-09-09T13:38:10;100766.91;;;17.72
69857;BMP280;57147;53.582;10.112;2022-09-09T13:43:15;100893.63;;;18.29
69857;BMP280;57147;53.582;10.112;2022-09-09T13:48:18;100898.91;;;17.86
69857;BMP280;57147;53.582;10.112;2022-09-09T13:53:21;100907.88;;;17.41
69857;BMP280;57147;53.582;10.112;2022-09-09T13:58:22;100900.00;;;17.00
69857;BMP280;57147;53.582;10.112;2022-09-09T14:03:23;100862.75;;;16.41
69857;BMP280;57147;53.582;10.112;2022-09-09T14:08:26;100825.69;;;16.22
69857;BMP280;57147;53.582;10.112;2022-09-09T14:13:27;100794.06;;;16.04
69857;BMP280;57147;53.582;10.112;2022-09-09T14:18:28;100793.22;;;16.24
69857;BMP280;57147;53.582;10.112;2022-09-09T14:23:31;100784.81;;;16.01
69857;BMP280;57147;53.582;10.112;2022-09-09T14:28:32;100781.19;;;15.97
69857;BMP280;57147;53.582;10.112;2022-09-09T14:33:33;100795.38;;;15.98
69857;BMP280;57147;53.582;10.112;2022-09-09T14:38:37;100790.47;;;16.00
69857;BMP280;57147;53.582;10.112;2022-09-09T14:43:38;100799.09;;;15.85
69857;BMP280;57147;53.582;10.112;2022-09-09T14:48:39;100793.41;;;15.86
69857;BMP280;57147;53.582;10.112;2022-09-09T14:53:43;100804.84;;;15.74
69857;BMP280;57147;53.582;10.112;2022-09-09T14:58:44;100798.28;;;15.63
69857;BMP280;57147;53.582;10.112;2022-09-09T15:03:49;100819.50;;;15.68
69857;BMP280;57147;53.582;10.112;2022-09-09T15:08:53;100810.88;;;15.63
69857;BMP280;57147;53.582;10.112;2022-09-09T15:13:54;100815.59;;;15.66
69857;BMP280;57147;53.582;10.112;2022-09-09T15:18:57;100789.50;;;15.84
69857;BMP280;57147;53.582;10.112;2022-09-09T15:24:00;100796.13;;;15.78
69857;BMP280;57147;53.582;10.112;2022-09-09T15:29:01;100805.03;;;15.69
69857;BMP280;57147;53.582;10.112;2022-09-09T15:34:04;100796.69;;;15.71
69857;BMP280;57147;53.582;10.112;2022-09-09T15:39:09;100793.81;;;15.76
69857;BMP280;57147;53.582;10.112;2022-09-09T15:44:10;100798.69;;;15.74
69857;BMP280;57147;53.582;10.112;2022-09-09T15:49:12;100800.28;;;15.96
69857;BMP280;57147;53.582;10.112;2022-09-09T15:54:17;100805.38;;;16.09
69857;BMP280;57147;53.582;10.112;2022-09-09T15:59:18;100779.56;;;16.17
69857;BMP280;57147;53.582;10.112;2022-09-09T16:04:20;100802.94;;;16.61
69857;BMP280;57147;53.582;10.112;2022-09-09T16:09:24;100797.41;;;16.91
69857;BMP280;57147;53.582;10.112;2022-09-09T16:14:25;100805.88;;;17.53
69857;BMP280;57147;53.582;10.112;2022-09-09T16:19:26;100815.63;;;17.46
69857;BMP280;57147;53.582;10.112;2022-09-09T16:24:29;100807.38;;;17.79
69857;BMP280;57147;53.582;10.112;2022-09-09T16:29:30;100808.25;;;17.83
69857;BMP280;57147;53.582;10.112;2022-09-09T16:34:31;100811.25;;;17.53
69857;BMP280;57147;53.582;10.112;2022-09-09T16:39:34;100810.16;;;17.30
69857;BMP280;57147;53.582;10.112;2022-09-09T16:44:34;100805.47;;;17.15
69857;BMP280;57147;53.582;10.112;2022-09-09T16:49:35;100802.00;;;17.02
69857;BMP280;57147;53.582;10.112;2022-09-09T16:54:38;100807.72;;;16.89
69857;BMP280;57147;53.582;10.112;2022-09-09T16:59:39;100821.56;;;16.79
69857;BMP280;57147;53.582;10.112;2022-09-09T17:04:39;100827.22;;;16.77
69857;BMP280;57147;53.582;10.112;2022-09-09T17:09:43;100825.09;;;16.71
69857;BMP280;57147;53.582;10.112;2022-09-09T17:14:43;100819.72;;;16.58
69857;BMP280;57147;53.582;10.112;2022-09-09T17:19:44;100830.16;;;16.51
69857;BMP280;57147;53.582;10.112;2022-09-09T17:24:47;100822.88;;;16.40
69857;BMP280;57147;53.582;10.112;2022-09-09T17:29:49;100813.88;;;16.24
69857;BMP280;57147;53.582;10.112;2022-09-09T17:34:50;100813.63;;;16.16
69857;BMP280;57147;53.582;10.112;2022-09-09T17:39:53;100813.97;;;16.15
69857;BMP280;57147;53.582;10.112;2022-09-09T17:44:53;100821.63;;;16.04
69857;BMP280;57147;53.582;10.112;2022-09-09T17:49:54;100789.25;;;15.77
69857;BMP280;57147;53.582;10.112;2022-09-09T17:54:57;100825.47;;;15.95
69857;BMP280;57147;53.582;10.112;2022-09-09T17:59:58;100837.75;;;15.75
69857;BMP280;57147;53.582;10.112;2022-09-09T18:04:58;100839.09;;;15.60
69857;BMP280;57147;53.582;10.112;2022-09-09T18:10:02;100858.94;;;15.59
69857;BMP280;57147;53.582;10.112;2022-09-09T18:15:03;100852.19;;;15.53
69857;BMP280;57147;53.582;10.112;2022-09-09T18:20:05;100863.19;;;15.52
69857;BMP280;57147;53.582;10.112;2022-09-09T18:25:08;100871.75;;;15.45
69857;BMP280;57147;53.582;10.112;2022-09-09T18:30:10;100887.69;;;15.33
69857;BMP280;57147;53.582;10.112;2022-09-09T18:35:11;100884.53;;;15.31
69857;BMP280;57147;53.582;10.112;2022-09-09T18:40:15;100882.50;;;15.28
69857;BMP280;57147;53.582;10.112;2022-09-09T18:45:16;100877.00;;;15.24
69857;BMP280;57147;53.582;10.112;2022-09-09T18:50:16;100884.44;;;15.19
69857;BMP280;57147;53.582;10.112;2022-09-09T18:55:20;100888.41;;;15.13
69857;BMP280;57147;53.582;10.112;2022-09-09T19:00:20;100880.34;;;15.21
69857;BMP280;57147;53.582;10.112;2022-09-09T19:05:21;100886.75;;;15.29
69857;BMP280;57147;53.582;10.112;2022-09-09T19:10:24;100864.69;;;15.32
69857;BMP280;57147;53.582;10.112;2022-09-09T19:15:25;100872.09;;;15.35
69857;BMP280;57147;53.582;10.112;2022-09-09T19:20:26;100871.63;;;15.33
69857;BMP280;57147;53.582;10.112;2022-09-09T19:25:29;100874.34;;;15.24
69857;BMP280;57147;53.582;10.112;2022-09-09T19:30:29;100886.75;;;15.29
69857;BMP280;57147;53.582;10.112;2022-09-09T19:35:30;100880.94;;;15.27
69857;BMP280;57147;53.582;10.112;2022-09-09T19:40:35;100888.69;;;15.20
69857;BMP280;57147;53.582;10.112;2022-09-09T19:45:36;100882.28;;;15.04
69857;BMP280;57147;53.582;10.112;2022-09-09T19:50:36;100902.72;;;15.00
69857;BMP280;57147;53.582;10.112;2022-09-09T19:55:40;100887.63;;;14.95
69857;BMP280;57147;53.582;10.112;2022-09-09T20:00:41;100893.63;;;14.83
69857;BMP280;57147;53.582;10.112;2022-09-09T20:05:44;100900.88;;;14.74
69857;BMP280;57147;53.582;10.112;2022-09-09T20:10:54;100891.28;;;14.73
69857;BMP280;57147;53.582;10.112;2022-09-09T20:15:56;100902.63;;;14.70
69857;BMP280;57147;53.582;10.112;2022-09-09T20:20:58;100903.88;;;14.64
69857;BMP280;57147;53.582;10.112;2022-09-09T20:26:03;100906.22;;;14.57
69857;BMP280;57147;53.582;10.112;2022-09-09T20:31:07;100904.31;;;14.58
69857;BMP280;57147;53.582;10.112;2022-09-09T20:36:09;100909.22;;;14.56
69857;BMP280;57147;53.582;10.112;2022-09-09T20:41:16;100916.75;;;14.62
69857;BMP280;57147;53.582;10.112;2022-09-09T20:46:17;100890.66;;;14.42
69857;BMP280;57147;53.582;10.112;2022-09-09T20:51:18;100917.06;;;14.69
69857;BMP280;57147;53.582;10.112;2022-09-09T20:56:21;100912.97;;;14.63
69857;BMP280;57147;53.582;10.112;2022-09-09T21:01:22;100917.50;;;14.45
69857;BMP280;57147;53.582;10.112;2022-09-09T21:06:22;100930.09;;;14.45
69857;BMP280;57147;53.582;10.112;2022-09-09T21:11:26;100914.69;;;14.25
69857;BMP280;57147;53.582;10.112;2022-09-09T21:16:28;100931.22;;;14.44
69857;BMP280;57147;53.582;10.112;2022-09-09T21:21:28;100923.50;;;14.34
69857;BMP280;57147;53.582;10.112;2022-09-09T21:26:31;100933.09;;;14.35
69857;BMP280;57147;53.582;10.112;2022-09-09T21:31:33;100930.75;;;14.33
69857;BMP280;57147;53.582;10.112;2022-09-09T21:36:34;100923.97;;;14.36
69857;BMP280;57147;53.582;10.112;2022-09-09T21:41:38;100929.16;;;14.41
69857;BMP280;57147;53.582;10.112;2022-09-09T21:46:38;100928.84;;;14.42
69857;BMP280;57147;53.582;10.112;2022-09-09T21:51:39;100905.94;;;14.33
69857;BMP280;57147;53.582;10.112;2022-09-09T21:56:42;100910.94;;;14.34
69857;BMP280;57147;53.582;10.112;2022-09-09T22:01:43;100907.31;;;14.39
69857;BMP280;57147;53.582;10.112;2022-09-09T22:06:44;100897.28;;;14.36
69857;BMP280;57147;53.582;10.112;2022-09-09T22:11:47;100897.91;;;14.33
69857;BMP280;57147;53.582;10.112;2022-09-09T22:16:47;100898.06;;;14.28
69857;BMP280;57147;53.582;10.112;2022-09-09T22:21:48;100897.59;;;14.26
69857;BMP280;57147;53.582;10.112;2022-09-09T22:26:52;100890.66;;;14.25
69857;BMP280;57147;53.582;10.112;2022-09-09T22:31:53;100888.31;;;14.32
69857;BMP280;57147;53.582;10.112;2022-09-09T22:36:55;100889.09;;;14.24
69857;BMP280;57147;53.582;10.112;2022-09-09T22:41:59;100889.72;;;14.21
69857;BMP280;57147;53.582;10.112;2022-09-09T22:47:00;100891.13;;;14.18
69857;BMP280;57147;53.582;10.112;2022-09-09T22:52:01;100895.97;;;14.08
69857;BMP280;57147;53.582;10.112;2022-09-09T22:57:04;100895.16;;;14.07
69857;BMP280;57147;53.582;10.112;2022-09-09T23:02:05;100899.72;;;14.07
69857;BMP280;57147;53.582;10.112;2022-09-09T23:07:05;100860.72;;;13.80
69857;BMP280;57147;53.582;10.112;2022-09-09T23:12:08;100880.88;;;13.94
69857;BMP280;57147;53.582;10.112;2022-09-09T23:17:09;100895.50;;;14.06
69857;BMP280;57147;53.582;10.112;2022-09-09T23:22:10;100898.63;;;14.08
69857;BMP280;57147;53.582;10.112;2022-09-09T23:27:13;100892.84;;;14.06
69857;BMP280;57147;53.582;10.112;2022-09-09T23:32:13;100892.19;;;14.09
69857;BMP280;57147;53.582;10.112;2022-09-09T23:37:14;100901.78;;;14.10
69857;BMP280;57147;53.582;10.112;2022-09-09T23:42:18;100903.63;;;14.00
69857;BMP280;57147;53.582;10.112;2022-09-09T23:47:18;100909.75;;;13.92
69857;BMP280;57147;53.582;10.112;2022-09-09T23:52:19;100902.03;;;13.82
69857;BMP280;57147;53.582;10.112;2022-09-09T23:57:22;100898.38;;;13.78
